Time;durP1;ratioP1;P1;durP2;ratioP2;P2;SDS_P1;SDS_P2;PMS_P1;PMS_P2;Temp;Humidity;BMP_temperature;BMP_pressure;BME280_temperature;BME280_humidity;BME280_pressure;Samples;Min_cycle;Max_cycle;Signal;HPM_P1;HPM_P2
2022/06/10 00:01:52;;;;;;;16.92;15.13;;;18.90;66.50;;;;;;5028316;28;20037;-81
2022/06/10 00:04:18;;;;;;;15.43;14.00;;;18.90;65.80;;;;;;5047613;28;20033;-80
2022/06/10 00:06:44;;;;;;;16.25;14.85;;;19.00;65.90;;;;;;5047468;28;20067;-80
2022/06/10 00:09:10;;;;;;;17.08;15.57;;;19.00;66.00;;;;;;5043071;28;20045;-81
2022/06/10 00:11:36;;;;;;;16.85;15.35;;;19.00;65.80;;;;;;5040461;28;20033;-81
2022/06/10 00:14:02;;;;;;;15.93;14.50;;;18.90;66.00;;;;;;5040444;28;20044;-80
2022/06/10 00:16:29;;;;;;;15.98;14.80;;;18.90;66.00;;;;;;5045791;28;20041;-81
2022/06/10 00:18:56;;;;;;;17.90;15.15;;;18.90;66.30;;;;;;5031701;28;20037;-80
2022/06/10 00:21:22;;;;;;;16.25;15.05;;;18.90;66.40;;;;;;5030553;28;20064;-80
2022/06/10 00:23:49;;;;;;;16.70;15.30;;;18.80;66.30;;;;;;5014646;28;20037;-81
2022/06/10 00:26:16;;;;;;;15.65;14.65;;;18.80;66.50;;;;;;5023963;28;20484;-81
2022/06/10 00:28:43;;;;;;;15.48;14.27;;;18.80;66.50;;;;;;5045085;28;20034;-80
2022/06/10 00:31:09;;;;;;;17.85;14.55;;;18.80;66.40;;;;;;5028364;28;20040;-80
2022/06/10 00:33:35;;;;;;;15.82;14.30;;;18.80;66.50;;;;;;5011524;28;20049;-80
2022/06/10 00:36:02;;;;;;;15.50;14.20;;;18.80;66.50;;;;;;5043161;28;20040;-80
2022/06/10 00:38:28;;;;;;;16.73;15.13;;;18.70;66.60;;;;;;5049588;28;20053;-81
2022/06/10 00:40:55;;;;;;;16.95;15.45;;;18.70;66.70;;;;;;5044657;28;20029;-81
2022/06/10 00:43:33;;;;;;;17.20;15.90;;;18.70;66.80;;;;;;5048841;28;20041;-80
2022/06/10 00:46:22;;;;;;;18.70;17.25;;;18.60;66.70;;;;;;5047341;28;20044;-80
2022/06/10 00:49:00;;;;;;;17.58;16.48;;;18.60;66.80;;;;;;5050669;28;20464;-80
2022/06/10 00:51:45;;;;;;;17.77;16.45;;;18.50;67.10;;;;;;5047175;28;20041;-80
2022/06/10 00:54:32;;;;;;;18.15;16.38;;;18.40;67.20;;;;;;5032676;28;20049;-80
2022/06/10 00:57:04;;;;;;;17.48;15.90;;;18.40;67.10;;;;;;5043515;28;20035;-81
2022/06/10 00:59:38;;;;;;;17.17;15.75;;;18.40;67.60;;;;;;5043509;28;20043;-81
2022/06/10 01:02:12;;;;;;;16.50;14.98;;;18.40;67.80;;;;;;5017482;28;20047;-81
2022/06/10 01:04:40;;;;;;;16.67;15.10;;;18.40;67.90;;;;;;5047876;28;20030;-80
2022/06/10 01:07:07;;;;;;;15.88;14.38;;;18.40;67.90;;;;;;5050355;28;20394;-81
2022/06/10 01:09:33;;;;;;;17.35;14.48;;;18.40;67.90;;;;;;5049016;28;20475;-81
2022/06/10 01:12:10;;;;;;;15.63;14.27;;;18.40;67.70;;;;;;5026747;28;20040;-80
2022/06/10 01:14:39;;;;;;;16.08;14.55;;;18.40;67.90;;;;;;5043034;28;20056;-80
2022/06/10 01:17:29;;;;;;;25.33;15.13;;;18.40;67.90;;;;;;5048179;28;20025;-80
2022/06/10 01:20:06;;;;;;;16.70;14.95;;;18.40;67.90;;;;;;5032833;28;20036;-80
2022/06/10 01:22:59;;;;;;;15.35;13.75;;;18.30;68.20;;;;;;5032809;28;20472;-80
2022/06/10 01:25:44;;;;;;;16.42;15.18;;;18.20;68.30;;;;;;5031339;28;20045;-81
2022/06/10 01:28:16;;;;;;;16.77;15.05;;;18.20;68.20;;;;;;5045794;28;20053;-80
2022/06/10 01:30:56;;;;;;;15.82;14.07;;;18.20;68.50;;;;;;5048929;28;20041;-80
2022/06/10 01:33:37;;;;;;;15.48;13.90;;;18.20;68.50;;;;;;5032781;28;20049;-81
2022/06/10 01:36:42;;;;;;;15.90;14.57;;;18.10;68.40;;;;;;5048673;28;20479;-80
2022/06/10 01:39:46;;;;;;;15.98;14.50;;;18.10;68.30;;;;;;5037214;28;20048;-80
2022/06/10 01:42:18;;;;;;;16.23;14.82;;;18.10;68.40;;;;;;5048286;28;20021;-80
2022/06/10 01:45:05;;;;;;;18.80;17.00;;;17.90;68.70;;;;;;5048248;28;20039;-80
2022/06/10 01:47:38;;;;;;;19.88;18.48;;;17.90;68.90;;;;;;5046849;28;20044;-80
2022/06/10 01:50:10;;;;;;;18.98;17.67;;;17.80;69.10;;;;;;5026518;28;20069;-80
2022/06/10 01:52:53;;;;;;;19.90;18.38;;;17.80;69.30;;;;;;5014696;28;20046;-81
2022/06/10 01:55:45;;;;;;;20.17;18.15;;;17.70;69.40;;;;;;5048524;28;20048;-80
2022/06/10 01:58:22;;;;;;;19.10;17.25;;;17.80;69.50;;;;;;5032271;28;20040;-81
2022/06/10 02:00:51;;;;;;;19.88;17.98;;;17.80;69.40;;;;;;5048941;28;20044;-81
2022/06/10 02:03:31;;;;;;;17.10;15.60;;;17.80;69.40;;;;;;5025940;28;20490;-80
2022/06/10 02:06:05;;;;;;;17.23;15.73;;;17.80;69.40;;;;;;5042595;28;20491;-80
2022/06/10 02:08:39;;;;;;;18.48;17.10;;;17.80;69.20;;;;;;5042033;28;20029;-80
2022/06/10 02:11:16;;;;;;;19.45;18.00;;;17.70;69.30;;;;;;5026629;28;20025;-80
2022/06/10 02:13:51;;;;;;;20.33;18.73;;;17.70;69.30;;;;;;5029915;28;20045;-80
2022/06/10 02:16:19;;;;;;;21.13;19.15;;;17.70;69.50;;;;;;5029497;28;20489;-80
2022/06/10 02:18:47;;;;;;;21.10;19.15;;;17.70;69.50;;;;;;5048817;28;20032;-80
2022/06/10 02:21:38;;;;;;;19.80;18.52;;;17.70;69.90;;;;;;5046244;28;20025;-81
2022/06/10 02:24:08;;;;;;;22.63;21.02;;;17.60;69.60;;;;;;5032535;28;20052;-80
2022/06/10 02:26:34;;;;;;;22.23;20.70;;;17.60;69.80;;;;;;5025836;28;20069;-80
2022/06/10 02:29:02;;;;;;;23.00;20.77;;;17.60;69.70;;;;;;5025261;28;20387;-80
2022/06/10 02:31:32;;;;;;;22.90;21.20;;;17.50;70.00;;;;;;5013198;28;20037;-80
2022/06/10 02:34:00;;;;;;;23.60;21.55;;;17.60;69.90;;;;;;5026083;28;20049;-80
2022/06/10 02:36:59;;;;;;;23.40;21.90;;;17.50;69.90;;;;;;5049241;28;20025;-80
2022/06/10 02:39:44;;;;;;;22.38;20.88;;;17.50;70.00;;;;;;5046483;28;20044;-80
2022/06/10 02:42:10;;;;;;;23.10;21.33;;;17.40;70.00;;;;;;5041861;28;20025;-80
2022/06/10 02:45:01;;;;;;;22.25;20.52;;;17.40;70.10;;;;;;5046718;28;20033;-80
2022/06/10 02:47:33;;;;;;;;;;;17.40;70.40;;;;;;5025387;28;20025;-80
2022/06/10 02:49:59;;;;;;;20.00;18.52;;;17.50;69.70;;;;;;5047562;28;19912;-80
2022/06/10 02:52:29;;;;;;;21.45;20.05;;;17.40;70.00;;;;;;5047750;28;20039;-80
2022/06/10 02:54:56;;;;;;;22.67;20.77;;;17.30;70.30;;;;;;5042272;28;20034;-80
2022/06/10 03:01:11;;;;;;;21.25;19.70;;;17.30;70.50;;;;;;5029117;28;20491;-80
2022/06/10 03:03:13;;;;;;;20.25;18.63;;;17.10;71.00;;;;;;5028763;28;20040;-80
2022/06/10 03:05:51;;;;;;;18.25;16.80;;;17.00;70.80;;;;;;5047161;28;20039;-80
2022/06/10 03:08:30;;;;;;;15.43;14.43;;;17.00;70.90;;;;;;5047158;28;20349;-80
2022/06/10 03:11:08;;;;;;;16.65;15.13;;;17.00;71.00;;;;;;5048245;28;20052;-80
2022/06/10 03:13:40;;;;;;;15.15;13.85;;;17.00;71.00;;;;;;5031691;28;20026;-80
2022/06/10 03:16:26;;;;;;;16.23;15.07;;;17.00;71.10;;;;;;5047305;28;20037;-80
2022/06/10 03:19:01;;;;;;;17.63;16.25;;;17.00;71.10;;;;;;5048889;28;20029;-80
2022/06/10 03:21:39;;;;;;;14.88;13.77;;;16.90;71.20;;;;;;5047983;28;20045;-80
2022/06/10 03:24:07;;;;;;;14.93;13.57;;;16.90;71.20;;;;;;5028798;28;20040;-80
2022/06/10 03:26:59;;;;;;;14.57;13.32;;;16.90;71.20;;;;;;5041032;28;20040;-80
2022/06/10 03:30:00;;;;;;;16.42;14.93;;;16.90;71.30;;;;;;5040576;28;20028;-80
2022/06/10 03:32:51;;;;;;;17.63;16.30;;;16.90;71.20;;;;;;5027440;28;20045;-80
2022/06/10 03:35:42;;;;;;;17.08;15.38;;;16.90;71.20;;;;;;5039289;28;20037;-80
2022/06/10 03:38:08;;;;;;;13.98;12.95;;;16.90;71.50;;;;;;5008550;28;20396;-80
2022/06/10 03:40:34;;;;;;;13.70;12.25;;;16.80;71.40;;;;;;5028931;28;20036;-80
2022/06/10 03:43:01;;;;;;;13.02;12.02;;;16.80;71.40;;;;;;5048297;28;20036;-81
2022/06/10 03:45:39;;;;;;;13.50;12.25;;;16.80;71.60;;;;;;5045001;28;20380;-80
2022/06/10 03:48:06;;;;;;;15.48;13.95;;;16.80;71.60;;;;;;5024828;28;20056;-80
2022/06/10 03:50:36;;;;;;;15.80;14.20;;;16.80;71.40;;;;;;5040943;28;20483;-80
2022/06/10 03:53:03;;;;;;;14.57;13.18;;;16.80;71.30;;;;;;5040892;28;20519;-80
2022/06/10 03:55:29;;;;;;;14.68;12.48;;;16.80;71.40;;;;;;5045413;28;20025;-80
2022/06/10 03:57:55;;;;;;;14.60;13.18;;;16.70;71.50;;;;;;5028532;28;20038;-80
2022/06/10 04:00:26;;;;;;;14.13;12.88;;;16.70;71.50;;;;;;5045816;28;20040;-80
2022/06/10 04:02:52;;;;;;;14.73;13.25;;;16.70;71.60;;;;;;5023160;28;20042;-80
2022/06/10 04:05:19;;;;;;;16.13;14.70;;;16.80;71.40;;;;;;5036195;28;20029;-80
2022/06/10 04:07:45;;;;;;;15.32;13.75;;;16.80;71.50;;;;;;5028731;28;20032;-80
2022/06/10 04:10:21;;;;;;;14.93;13.48;;;16.80;71.40;;;;;;5012968;28;20056;-80
2022/06/10 04:12:48;;;;;;;15.40;14.13;;;16.70;71.50;;;;;;5034856;28;20037;-80
2022/06/10 04:15:17;;;;;;;13.10;11.95;;;16.70;71.60;;;;;;5043567;28;20041;-80
2022/06/10 04:17:44;;;;;;;15.05;11.82;;;16.70;71.70;;;;;;5028392;28;20383;-80
2022/06/10 04:20:20;;;;;;;14.10;12.88;;;16.70;72.00;;;;;;5032373;28;20049;-80
2022/06/10 04:22:46;;;;;;;15.75;12.80;;;16.60;71.80;;;;;;5032331;28;20451;-80
2022/06/10 04:25:12;;;;;;;12.15;11.13;;;16.50;71.90;;;;;;5051290;28;20033;-80
2022/06/10 04:27:39;;;;;;;12.52;11.20;;;16.50;72.00;;;;;;5051064;28;20029;-80
2022/06/10 04:30:06;;;;;;;13.15;11.93;;;16.50;72.10;;;;;;5017468;28;20044;-79
2022/06/10 04:32:32;;;;;;;13.35;12.05;;;16.50;72.40;;;;;;5017813;28;20513;-80
2022/06/10 04:34:58;;;;;;;13.60;12.40;;;16.50;72.60;;;;;;5034572;28;20052;-80
2022/06/10 04:37:25;;;;;;;13.32;12.02;;;16.70;73.20;;;;;;5049135;28;23694;-80
2022/06/10 04:39:52;;;;;;;12.60;11.30;;;16.70;72.70;;;;;;5051529;28;20037;-80
2022/06/10 04:42:18;;;;;;;17.10;11.77;;;16.70;73.00;;;;;;5044392;28;20384;-80
2022/06/10 04:44:44;;;;;;;13.60;12.27;;;16.70;73.10;;;;;;5031131;28;20057;-80
2022/06/10 04:47:10;;;;;;;13.48;12.50;;;16.70;73.00;;;;;;5041318;28;20494;-80
2022/06/10 04:49:36;;;;;;;14.82;13.18;;;16.80;73.10;;;;;;5015713;28;20045;-80
2022/06/10 04:52:05;;;;;;;16.00;13.35;;;16.80;73.20;;;;;;5052317;28;20048;-80
2022/06/10 04:54:32;;;;;;;14.38;13.13;;;16.90;73.20;;;;;;5033846;28;20079;-80
2022/06/10 04:56:58;;;;;;;14.50;12.65;;;16.90;73.20;;;;;;5043681;28;20036;-80
2022/06/10 04:59:24;;;;;;;14.15;12.73;;;16.90;73.30;;;;;;5043523;28;20037;-80
2022/06/10 05:01:50;;;;;;;15.68;14.57;;;16.90;73.30;;;;;;5048825;28;20037;-80
2022/06/10 05:04:16;;;;;;;18.40;17.08;;;17.00;73.40;;;;;;5051214;28;20047;-80
2022/06/10 05:06:42;;;;;;;18.75;17.35;;;17.00;73.20;;;;;;5049951;28;20132;-80
2022/06/10 05:09:08;;;;;;;21.25;19.73;;;17.00;73.30;;;;;;5030241;28;20042;-80
2022/06/10 05:11:34;;;;;;;27.23;25.00;;;17.00;73.40;;;;;;5042329;28;20060;-80
2022/06/10 05:14:00;;;;;;;27.90;25.98;;;17.00;73.30;;;;;;5048884;28;20040;-80
2022/06/10 05:16:26;;;;;;;26.98;25.10;;;17.00;73.30;;;;;;5047879;28;20059;-80
2022/06/10 05:18:53;;;;;;;26.83;24.80;;;17.00;73.10;;;;;;5050991;28;20395;-80
2022/06/10 05:21:19;;;;;;;21.63;19.90;;;17.00;73.60;;;;;;5047403;28;20031;-80
2022/06/10 05:23:46;;;;;;;27.05;25.02;;;17.00;73.50;;;;;;5042223;28;20498;-80
2022/06/10 05:26:13;;;;;;;24.70;22.98;;;17.10;73.50;;;;;;5048788;28;20490;-80
2022/06/10 05:28:40;;;;;;;20.85;19.08;;;17.10;73.50;;;;;;5014963;28;20037;-80
2022/06/10 05:31:06;;;;;;;21.67;19.88;;;17.20;73.30;;;;;;5032705;28;20434;-80
2022/06/10 05:36:17;;;;;;;14.90;13.40;;;17.20;73.50;;;;;;5048899;28;20048;-81
2022/06/10 05:38:45;;;;;;;13.63;12.20;;;17.30;73.40;;;;;;5042445;28;20040;-81
2022/06/10 05:43:55;;;;;;;14.25;11.98;;;17.60;73.90;;;;;;5036404;28;20498;-81
2022/06/10 05:46:22;;;;;;;12.82;11.73;;;17.80;74.00;;;;;;5047703;28;20044;-81
2022/06/10 05:48:48;;;;;;;13.75;12.15;;;18.10;73.40;;;;;;5030490;28;20045;-81
2022/06/10 05:51:14;;;;;;;13.85;12.63;;;18.20;72.60;;;;;;5046908;28;20028;-81
2022/06/10 05:53:40;;;;;;;13.13;11.93;;;18.50;71.70;;;;;;5048013;28;20364;-81
2022/06/10 05:56:06;;;;;;;14.80;12.27;;;18.50;70.20;;;;;;5049386;28;20036;-81
2022/06/10 05:58:32;;;;;;;13.45;12.45;;;18.60;70.10;;;;;;5048234;28;20383;-81
2022/06/10 06:00:58;;;;;;;13.43;12.43;;;18.60;69.70;;;;;;5049605;28;20076;-81
2022/06/10 06:03:24;;;;;;;14.80;13.30;;;18.70;69.30;;;;;;5048170;28;20043;-81
2022/06/10 06:05:50;;;;;;;14.00;12.90;;;18.60;69.20;;;;;;5013213;28;20064;-81
2022/06/10 06:08:17;;;;;;;14.40;13.20;;;18.70;69.00;;;;;;5023279;28;20032;-81
2022/06/10 06:10:43;;;;;;;14.75;13.23;;;18.70;68.90;;;;;;5013158;28;20030;-81
2022/06/10 06:13:10;;;;;;;19.10;13.73;;;18.70;69.30;;;;;;5048819;28;20033;-81
2022/06/10 06:15:38;;;;;;;15.65;14.15;;;18.70;70.60;;;;;;5048474;28;20056;-82
2022/06/10 06:18:05;;;;;;;18.88;17.58;;;18.80;71.90;;;;;;5025603;28;20025;-82
2022/06/10 06:20:31;;;;;;;16.35;15.35;;;19.10;71.80;;;;;;5032301;28;20573;-81
2022/06/10 06:22:57;;;;;;;15.95;14.65;;;19.30;70.60;;;;;;5048726;28;20037;-81
2022/06/10 06:25:23;;;;;;;15.38;14.05;;;19.50;69.50;;;;;;5030427;28;20032;-82
2022/06/10 06:27:49;;;;;;;15.45;14.07;;;19.70;68.70;;;;;;5049351;28;20408;-81
2022/06/10 06:30:42;;;;;;;15.82;14.55;;;19.80;68.30;;;;;;5023612;28;20033;-82
2022/06/10 06:33:08;;;;;;;15.85;14.25;;;19.90;68.00;;;;;;5044395;28;20053;-82
2022/06/10 06:35:35;;;;;;;14.98;13.98;;;20.10;67.40;;;;;;5011680;28;20498;-82
2022/06/10 06:38:02;;;;;;;15.55;14.27;;;20.10;67.30;;;;;;5020519;28;20044;-82
2022/06/10 06:40:28;;;;;;;16.42;14.80;;;20.30;67.10;;;;;;5046471;28;20029;-82
2022/06/10 06:42:55;;;;;;;16.25;14.80;;;20.40;66.10;;;;;;5049733;28;20031;-82
2022/06/10 06:45:21;;;;;;;16.35;14.98;;;20.50;65.50;;;;;;5041192;28;20456;-82
2022/06/10 06:47:48;;;;;;;16.23;14.80;;;20.60;65.30;;;;;;5047233;28;20033;-82
2022/06/10 06:50:15;;;;;;;15.63;14.23;;;20.50;65.30;;;;;;5041436;28;20403;-82
2022/06/10 06:52:42;;;;;;;15.52;14.15;;;20.40;64.90;;;;;;5045685;28;20029;-81
2022/06/10 06:55:09;;;;;;;15.07;14.05;;;20.30;65.10;;;;;;5013168;28;20049;-82
2022/06/10 06:57:35;;;;;;;15.10;13.80;;;20.30;65.10;;;;;;5030555;28;20025;-82
2022/06/10 07:00:06;;;;;;;15.38;13.27;;;20.30;65.20;;;;;;5041229;28;20044;-82
2022/06/10 07:02:32;;;;;;;;;;;20.30;65.40;;;;;;5041076;28;20048;-81
2022/06/10 07:04:58;;;;;;;13.88;12.80;;;20.30;65.20;;;;;;5046810;28;19911;-82
2022/06/10 07:07:24;;;;;;;14.23;13.20;;;20.30;65.30;;;;;;5029639;28;20448;-82
2022/06/10 07:09:51;;;;;;;14.43;13.43;;;20.30;64.90;;;;;;5048941;28;20479;-81
2022/06/10 07:12:17;;;;;;;15.48;14.13;;;20.30;64.90;;;;;;5024644;28;20032;-82
2022/06/10 07:14:43;;;;;;;15.55;14.18;;;20.40;64.30;;;;;;5047909;28;20048;-82
2022/06/10 07:17:11;;;;;;;14.40;13.38;;;20.30;64.40;;;;;;5041637;28;20029;-81
2022/06/10 07:19:38;;;;;;;15.70;14.40;;;20.30;64.50;;;;;;5027919;28;20034;-82
2022/06/10 07:22:07;;;;;;;15.43;14.32;;;20.50;64.30;;;;;;5045242;28;20029;-82
2022/06/10 07:24:33;;;;;;;16.27;14.70;;;20.50;63.80;;;;;;5031507;28;20041;-82
2022/06/10 07:27:00;;;;;;;16.00;14.68;;;20.50;63.50;;;;;;5041146;28;20029;-82
2022/06/10 07:29:27;;;;;;;16.00;14.75;;;20.60;63.60;;;;;;5024210;28;20052;-82
2022/06/10 07:31:53;;;;;;;16.80;15.40;;;20.60;63.00;;;;;;5044983;28;20037;-81
2022/06/10 07:34:19;;;;;;;16.60;15.40;;;20.60;63.60;;;;;;5012756;28;20056;-82
2022/06/10 07:36:46;;;;;;;16.42;15.15;;;20.60;63.40;;;;;;5047665;28;20017;-82
2022/06/10 07:39:12;;;;;;;16.73;15.43;;;20.60;63.30;;;;;;5024392;28;20059;-82
2022/06/10 07:44:26;;;;;;;17.45;16.17;;;20.80;61.70;;;;;;5030034;28;20407;-83
2022/06/10 07:46:53;;;;;;;16.38;15.27;;;20.80;61.80;;;;;;5048132;28;20037;-82
2022/06/10 07:49:19;;;;;;;16.38;15.10;;;20.90;61.70;;;;;;5033447;28;20065;-82
2022/06/10 07:51:46;;;;;;;15.90;14.93;;;20.90;61.70;;;;;;5034727;28;20029;-82
2022/06/10 07:54:13;;;;;;;16.90;15.65;;;21.00;60.80;;;;;;5028501;28;20037;-82
2022/06/10 07:56:39;;;;;;;16.85;15.60;;;21.00;59.60;;;;;;5044975;28;20373;-82
2022/06/10 07:59:06;;;;;;;16.48;15.25;;;20.90;60.10;;;;;;5044830;28;20029;-82
2022/06/10 08:01:32;;;;;;;16.83;15.50;;;20.90;60.50;;;;;;5032199;28;20029;-82
2022/06/10 08:03:59;;;;;;;17.17;15.88;;;20.90;60.50;;;;;;5036065;28;20033;-82
2022/06/10 08:06:26;;;;;;;16.90;15.50;;;21.00;60.70;;;;;;5050695;28;20041;-82
2022/06/10 08:08:52;;;;;;;16.77;15.45;;;21.00;60.60;;;;;;5028115;28;20036;-82
2022/06/10 08:11:19;;;;;;;16.88;15.57;;;21.00;60.50;;;;;;5051592;28;20499;-82
2022/06/10 08:13:45;;;;;;;16.40;15.30;;;21.00;60.00;;;;;;5032545;28;20037;-82
2022/06/10 08:16:12;;;;;;;18.35;16.55;;;21.00;60.60;;;;;;5051949;28;20499;-82
2022/06/10 08:18:38;;;;;;;16.90;15.70;;;21.10;60.90;;;;;;5015772;28;20037;-82
2022/06/10 08:23:51;;;;;;;18.13;16.83;;;21.20;60.50;;;;;;4977398;28;20045;-82
2022/06/10 08:26:17;;;;;;;16.45;15.45;;;21.20;60.40;;;;;;4970197;28;20039;-82
2022/06/10 08:28:44;;;;;;;16.73;15.65;;;21.20;60.70;;;;;;4974820;28;20042;-82
2022/06/10 08:31:11;;;;;;;17.42;16.20;;;21.00;60.50;;;;;;4974468;28;20126;-82
2022/06/10 08:33:37;;;;;;;17.38;16.05;;;21.00;60.80;;;;;;4962236;28;20047;-82
2022/06/10 08:36:04;;;;;;;16.33;15.13;;;21.10;61.00;;;;;;4987762;28;20038;-82
2022/06/10 08:38:30;;;;;;;17.27;15.85;;;21.00;59.90;;;;;;4974183;28;20049;-82
2022/06/10 08:41:14;;;;;;;16.45;15.45;;;21.00;59.80;;;;;;4974650;28;20042;-82
2022/06/10 08:44:04;;;;;;;16.75;15.65;;;21.00;60.20;;;;;;4990933;28;20027;-82
2022/06/10 08:46:50;;;;;;;17.17;15.73;;;21.10;60.20;;;;;;4976746;28;20030;-82
2022/06/10 08:49:19;;;;;;;16.85;15.75;;;21.20;59.70;;;;;;4990215;28;20034;-82
2022/06/10 08:52:22;;;;;;;16.73;15.70;;;21.00;60.00;;;;;;4991372;28;20110;-82
2022/06/10 08:55:10;;;;;;;17.13;15.88;;;21.00;60.40;;;;;;4972182;28;20049;-82
2022/06/10 08:57:38;;;;;;;17.27;16.05;;;21.00;60.40;;;;;;4989932;28;20444;-82
2022/06/10 09:00:10;;;;;;;17.42;16.38;;;21.00;60.30;;;;;;4977562;28;20401;-82
2022/06/10 09:03:04;;;;;;;17.25;16.05;;;21.00;60.80;;;;;;5025362;28;20025;-82
2022/06/10 09:05:43;;;;;;;17.02;15.77;;;21.10;60.40;;;;;;5043301;28;20053;-82
2022/06/10 09:08:17;;;;;;;17.40;16.10;;;21.20;61.10;;;;;;5027386;28;20033;-83
2022/06/10 09:10:54;;;;;;;17.58;16.23;;;21.10;60.90;;;;;;5032010;28;20032;-82
2022/06/10 09:13:32;;;;;;;18.00;16.48;;;21.10;61.30;;;;;;5050283;28;20029;-82
2022/06/10 09:16:16;;;;;;;17.88;16.65;;;21.20;61.20;;;;;;5042104;28;20393;-82
2022/06/10 09:19:07;;;;;;;18.10;16.42;;;21.30;60.80;;;;;;5050932;28;20041;-82
2022/06/10 09:21:51;;;;;;;17.10;15.93;;;21.20;60.30;;;;;;5049889;28;20055;-82
2022/06/10 09:24:24;;;;;;;17.27;16.30;;;21.30;60.50;;;;;;5043072;28;20021;-82
2022/06/10 09:27:17;;;;;;;17.17;15.98;;;21.30;60.90;;;;;;5027203;28;20036;-82
2022/06/10 09:29:43;;;;;;;17.33;16.02;;;21.10;61.10;;;;;;5033122;28;20041;-82
2022/06/10 09:32:11;;;;;;;16.95;15.75;;;21.10;61.20;;;;;;5025575;28;20056;-82
2022/06/10 09:34:45;;;;;;;17.98;16.83;;;21.10;61.30;;;;;;5047478;28;20033;-82
2022/06/10 09:37:11;;;;;;;19.10;17.00;;;21.10;61.20;;;;;;5033567;28;20388;-82
2022/06/10 09:42:37;;;;;;;18.00;16.88;;;21.10;62.00;;;;;;5043610;28;20040;-82
2022/06/10 09:45:14;;;;;;;16.67;15.48;;;21.10;61.00;;;;;;5042221;28;20029;-81
2022/06/10 09:47:40;;;;;;;16.70;15.60;;;21.10;61.30;;;;;;5042930;28;20017;-82
2022/06/10 09:50:35;;;;;;;17.45;16.10;;;21.20;61.30;;;;;;5048297;28;20025;-82
2022/06/10 09:53:28;;;;;;;17.05;15.85;;;21.30;61.00;;;;;;5036841;28;20029;-82
2022/06/10 09:55:57;;;;;;;17.88;16.58;;;21.40;61.40;;;;;;5033189;28;20111;-82
2022/06/10 09:58:36;;;;;;;18.02;16.73;;;21.40;61.10;;;;;;5048140;28;20025;-82
2022/06/10 10:01:17;;;;;;;17.58;16.38;;;21.50;61.10;;;;;;5029155;28;20037;-82
2022/06/10 10:04:06;;;;;;;17.88;16.67;;;21.50;60.90;;;;;;5016872;28;20049;-82
2022/06/10 10:06:42;;;;;;;17.80;16.58;;;21.50;61.00;;;;;;5049264;28;20467;-82
2022/06/10 10:09:27;;;;;;;17.85;16.67;;;21.50;61.10;;;;;;5013650;28;20049;-82
2022/06/10 10:12:08;;;;;;;19.95;18.58;;;21.50;61.30;;;;;;5043644;28;20033;-82
2022/06/10 10:15:07;;;;;;;18.33;17.15;;;21.60;59.80;;;;;;5047361;28;20049;-82
2022/06/10 10:17:51;;;;;;;17.00;15.88;;;21.50;60.00;;;;;;4965647;28;20046;-82
2022/06/10 10:20:22;;;;;;;18.27;17.02;;;21.50;60.70;;;;;;4966695;28;20038;-83
2022/06/10 10:23:28;;;;;;;18.70;17.40;;;21.60;60.80;;;;;;4953612;28;20069;-83
2022/06/10 10:25:54;;;;;;;17.95;16.65;;;21.70;59.90;;;;;;4936997;28;20034;-82
2022/06/10 10:28:28;;;;;;;17.25;16.15;;;21.90;60.00;;;;;;4951760;28;20201;-82
2022/06/10 10:31:08;;;;;;;18.52;17.05;;;21.90;59.30;;;;;;4954317;28;20034;-82
2022/06/10 10:33:34;;;;;;;18.20;17.00;;;22.00;58.80;;;;;;4970062;28;20035;-82
2022/06/10 10:36:00;;;;;;;18.33;17.08;;;22.20;59.10;;;;;;4952985;28;20047;-82
2022/06/10 10:38:41;;;;;;;18.38;17.10;;;22.30;58.70;;;;;;4966664;28;20031;-83
2022/06/10 10:41:27;;;;;;;18.27;16.83;;;22.40;57.70;;;;;;4953185;28;20508;-82
2022/06/10 10:44:14;;;;;;;18.27;16.98;;;22.40;58.30;;;;;;4966280;28;20035;-82
2022/06/10 10:46:45;;;;;;;20.33;18.98;;;22.50;57.90;;;;;;4935357;28;20105;-83
2022/06/10 10:49:21;;;;;;;19.05;18.00;;;22.40;57.90;;;;;;4935535;28;20386;-82
2022/06/10 10:51:49;;;;;;;19.20;18.10;;;22.40;57.90;;;;;;4969090;28;20394;-82
2022/06/10 10:54:19;;;;;;;18.58;17.38;;;22.50;58.40;;;;;;4988762;28;20057;-82
2022/06/10 10:56:49;;;;;;;19.42;17.92;;;22.50;58.10;;;;;;5032104;28;20040;-82
2022/06/10 10:59:40;;;;;;;19.88;18.67;;;22.60;57.50;;;;;;5015974;28;20414;-82
2022/06/10 11:02:28;;;;;;;20.05;18.55;;;22.60;57.90;;;;;;5029044;28;20037;-83
2022/06/10 11:05:18;;;;;;;19.70;18.17;;;22.60;58.10;;;;;;5048712;28;20060;-83
2022/06/10 11:07:47;;;;;;;19.05;17.85;;;22.70;57.50;;;;;;5032757;28;20032;-83
2022/06/10 11:10:24;;;;;;;20.00;18.55;;;22.80;57.90;;;;;;5013580;28;20052;-83
2022/06/10 11:12:50;;;;;;;19.35;18.05;;;23.00;57.50;;;;;;5031736;28;20052;-83
2022/06/10 11:15:27;;;;;;;21.23;19.75;;;23.10;57.20;;;;;;5014118;28;20040;-83
2022/06/10 11:17:55;;;;;;;21.67;20.17;;;23.10;56.80;;;;;;5026459;28;20031;-83
2022/06/10 11:20:31;;;;;;;20.40;18.92;;;23.10;57.10;;;;;;5014819;28;20045;-83
2022/06/10 11:23:24;;;;;;;20.17;18.90;;;23.20;56.80;;;;;;5030484;28;20032;-83
2022/06/10 11:26:02;;;;;;;19.98;18.67;;;23.20;56.30;;;;;;5032708;28;20029;-82
2022/06/10 11:28:34;;;;;;;22.55;21.27;;;23.20;56.90;;;;;;5033168;28;20384;-83
2022/06/10 11:31:00;;;;;;;21.08;19.65;;;23.20;56.80;;;;;;5028664;28;20037;-83
2022/06/10 11:33:40;;;;;;;21.48;19.98;;;23.30;56.70;;;;;;5047374;28;20403;-83
2022/06/10 11:36:36;;;;;;;20.05;18.77;;;23.20;57.20;;;;;;5011647;28;20050;-83
2022/06/10 11:39:20;;;;;;;18.90;17.58;;;23.30;56.80;;;;;;5028191;28;20044;-83
2022/06/10 11:42:16;;;;;;;20.23;19.08;;;23.30;56.20;;;;;;5046173;28;20029;-83
2022/06/10 11:44:52;;;;;;;20.83;18.77;;;23.20;57.10;;;;;;5046748;28;20195;-83
2022/06/10 11:47:33;;;;;;;20.52;19.15;;;23.20;57.30;;;;;;5040428;28;20400;-83
2022/06/10 11:50:34;;;;;;;20.10;18.88;;;23.20;57.30;;;;;;5041204;28;20502;-83
2022/06/10 11:53:03;;;;;;;20.27;18.98;;;23.20;57.20;;;;;;4957655;28;20043;-83
2022/06/10 11:55:32;;;;;;;19.95;18.40;;;23.20;57.50;;;;;;4968001;28;20046;-83
2022/06/10 12:01:08;;;;;;;19.33;18.00;;;23.20;58.50;;;;;;4969010;28;20642;-83
2022/06/10 12:03:45;;;;;;;20.15;19.05;;;23.20;56.80;;;;;;4967803;28;20050;-83
2022/06/10 12:06:14;;;;;;;19.05;17.67;;;23.30;57.30;;;;;;4958146;28;20404;-83
2022/06/10 12:08:47;;;;;;;20.50;19.30;;;23.20;56.40;;;;;;4968283;28;20046;-83
2022/06/10 12:11:42;;;;;;;20.73;19.58;;;23.20;57.50;;;;;;4967973;28;20047;-83
2022/06/10 12:14:17;;;;;;;20.58;19.25;;;23.40;57.40;;;;;;4951861;28;20043;-83
2022/06/10 12:16:46;;;;;;;20.40;19.02;;;23.50;57.00;;;;;;4967736;28;20049;-83
2022/06/10 12:19:27;;;;;;;20.42;19.33;;;23.60;57.00;;;;;;4952602;28;20022;-83
2022/06/10 12:21:53;;;;;;;21.77;20.17;;;23.70;55.70;;;;;;4953039;28;20122;-82
2022/06/10 12:24:20;;;;;;;23.17;21.45;;;23.70;56.30;;;;;;4956589;28;20090;-83
2022/06/10 12:26:51;;;;;;;21.90;20.67;;;23.80;57.10;;;;;;4951786;28;20041;-83
2022/06/10 12:29:44;;;;;;;21.70;20.20;;;23.90;55.90;;;;;;4991873;28;20041;-83
2022/06/10 12:32:42;;;;;;;21.42;20.02;;;23.80;56.30;;;;;;5029924;28;20041;-83
2022/06/10 12:35:25;;;;;;;21.67;20.10;;;23.90;56.00;;;;;;5020750;28;20076;-83
2022/06/10 12:38:15;;;;;;;22.38;21.02;;;24.00;55.70;;;;;;5033295;28;20024;-82
2022/06/10 12:40:48;;;;;;;21.33;19.97;;;24.00;54.80;;;;;;5034270;28;20472;-83
2022/06/10 12:43:23;;;;;;;23.10;21.80;;;24.00;55.80;;;;;;5050551;28;20021;-82
2022/06/10 12:45:55;;;;;;;22.70;21.27;;;24.00;55.90;;;;;;5051098;28;20044;-83
2022/06/10 12:48:29;;;;;;;22.65;21.25;;;24.10;55.80;;;;;;5027704;28;20025;-83
2022/06/10 12:50:56;;;;;;;23.85;22.55;;;24.20;55.50;;;;;;5027327;28;20048;-82
2022/06/10 12:53:47;;;;;;;22.83;21.33;;;24.20;54.40;;;;;;5050636;28;20029;-83
2022/06/10 12:56:17;;;;;;;;;;;24.20;55.60;;;;;;5050007;28;20447;-83
2022/06/10 12:59:03;;;;;;;22.10;20.90;;;24.10;54.70;;;;;;5048224;28;20276;-83
2022/06/10 13:01:29;;;;;;;22.77;21.27;;;23.90;54.80;;;;;;5031457;28;20033;-83
2022/06/10 13:04:00;;;;;;;23.58;21.90;;;24.10;55.40;;;;;;5051721;28;20390;-82
2022/06/10 13:06:41;;;;;;;22.33;21.13;;;24.10;54.80;;;;;;5034437;28;20407;-83
2022/06/10 13:09:10;;;;;;;23.13;21.83;;;24.10;55.20;;;;;;5049006;28;20037;-82
2022/06/10 13:11:49;;;;;;;22.92;21.52;;;24.20;54.40;;;;;;5049100;28;20036;-83
2022/06/10 13:14:29;;;;;;;23.92;22.38;;;24.20;55.60;;;;;;5043211;28;20025;-83
2022/06/10 13:16:58;;;;;;;22.60;21.40;;;24.20;55.10;;;;;;5047622;28;20044;-82
2022/06/10 13:19:37;;;;;;;22.48;21.10;;;24.10;54.70;;;;;;5049733;28;20030;-82